Saint-Alexandre, Canada
Current Conditions -  °F | °C
As of 3:53 PM on Monday 22 Dec 2014 (Local Time) from KFVE Reporting Station
Overcast Overcast  
Wind Chill: 22°   Ceiling: 1800
Heat Index: 22°   Visibility: 10mi
Dew Point: 19°   Wind: 0mph
Humidity: 89%   Direction: NA
Pressure: 30.36"   Gusts: NA
Location:  47.68°N, 69.63°W
Report Text: KFVE 222053Z AUTO 00000KT 10SM FEW008 OVC018 M06/M07 A3036 RMK AO2 SLP298 T10561072 53003
Loading
Personal Weather Stations






























Interactive Weather Map New forecast layout! Learn more

10-Day Weather Forecast

Advertisements
Track Severe Weather on mobile